Time;durP1;ratioP1;P1;durP2;ratioP2;P2;SDS_P1;SDS_P2;PMS_P1;PMS_P2;Temp;Humidity;BMP_temperature;BMP_pressure;BME280_temperature;BME280_humidity;BME280_pressure;Samples;Min_cycle;Max_cycle;Signal;HPM_P1;HPM_P2
2024/02/19 00:02:10;;;;;;;2.63;2.37;;;8.70;96.50;;;7.96;100.00;98628.81;5048139;28;20460;-76
2024/02/19 00:04:37;;;;;;;2.27;2.07;;;8.70;96.30;;;7.99;100.00;98633.84;5048192;28;20457;-77
2024/02/19 00:07:04;;;;;;;2.80;2.57;;;8.70;96.20;;;8.02;100.00;98628.91;5044543;28;21031;-77
2024/02/19 00:09:32;;;;;;;2.50;2.30;;;8.70;96.70;;;8.09;100.00;98620.94;5047383;28;20454;-77
2024/02/19 00:11:59;;;;;;;2.53;2.30;;;8.70;96.60;;;8.09;100.00;98620.94;5045931;28;20490;-74
2024/02/19 00:14:28;;;;;;;2.30;2.10;;;8.70;96.10;;;8.10;99.16;98616.41;5048426;28;20457;-78
2024/02/19 00:16:55;;;;;;;2.47;2.10;;;8.70;95.70;;;8.13;99.99;98616.88;5042141;28;20808;-81
2024/02/19 00:19:22;;;;;;;3.03;2.43;;;8.70;95.60;;;8.18;99.79;98606.41;5051632;28;20487;-78
2024/02/19 00:21:50;;;;;;;1.97;1.87;;;8.80;95.50;;;8.12;99.21;98609.84;5052564;28;21250;-77
2024/02/19 00:24:17;;;;;;;2.43;2.23;;;8.80;95.00;;;8.18;99.02;98605.53;5051282;28;21026;-74
2024/02/19 00:26:44;;;;;;;2.03;1.83;;;8.80;95.00;;;8.08;99.84;98608.50;5050168;28;20458;-77
2024/02/19 00:29:12;;;;;;;2.70;2.50;;;8.70;95.20;;;8.12;100.00;98609.00;5040931;28;21024;-76
2024/02/19 00:31:44;;;;;;;2.07;1.93;;;8.80;95.40;;;8.15;98.68;98605.91;5041056;28;20806;-73
2024/02/19 00:34:12;;;;;;;3.03;2.20;;;8.80;94.40;;;8.18;99.16;98603.69;5080868;28;20523;-75
2024/02/19 00:36:39;;;;;;;2.67;2.40;;;8.80;94.70;;;8.10;99.64;98614.53;5035067;28;20548;-75
2024/02/19 00:39:06;;;;;;;2.13;2.03;;;8.80;94.80;;;8.15;99.93;98603.22;5053561;28;20499;-75
2024/02/19 00:41:33;;;;;;;3.70;2.30;;;8.80;95.20;;;8.12;98.85;98596.38;5055215;28;20463;-75
2024/02/19 00:44:00;;;;;;;2.30;2.20;;;8.70;95.10;;;8.19;99.45;98608.06;5052895;28;20435;-73
2024/02/19 00:46:28;;;;;;;2.77;2.57;;;8.80;95.10;;;8.10;99.19;98592.19;5049665;28;20447;-77
2024/02/19 00:48:56;;;;;;;2.60;2.40;;;8.80;94.70;;;8.16;99.01;98603.06;5038790;28;20867;-75
2024/02/19 00:51:24;;;;;;;2.67;2.47;;;8.80;94.90;;;8.09;99.08;98585.97;5044103;28;20480;-75
2024/02/19 00:53:51;;;;;;;2.40;2.20;;;8.70;94.70;;;8.06;99.80;98589.03;5047774;28;20499;-76
2024/02/19 00:56:18;;;;;;;2.90;2.67;;;8.70;95.00;;;8.18;99.17;98597.47;5045075;28;20871;-76
2024/02/19 00:58:45;;;;;;;3.20;2.90;;;8.80;94.70;;;8.12;98.27;98590.16;5076207;28;20459;-75
2024/02/19 01:01:13;;;;;;;3.67;3.27;;;8.80;94.40;;;8.11;98.12;98581.22;5043179;28;20487;-76
2024/02/19 01:03:40;;;;;;;3.00;2.67;;;8.80;94.30;;;8.15;98.96;98590.63;5055965;28;20551;-77
2024/02/19 01:06:09;;;;;;;2.80;2.60;;;8.80;94.40;;;8.16;98.28;98586.91;5050205;28;21099;-77
2024/02/19 01:08:36;;;;;;;3.43;2.80;;;8.80;94.50;;;8.17;98.79;98588.56;5039873;28;20446;-74
2024/02/19 01:11:04;;;;;;;3.80;3.50;;;8.80;94.70;;;8.17;99.20;98585.03;5079270;28;21006;-78
2024/02/19 01:13:31;;;;;;;3.43;3.17;;;8.80;94.70;;;8.12;98.88;98590.16;5046860;28;20440;-76
2024/02/19 01:15:58;;;;;;;3.60;3.10;;;8.80;94.60;;;8.25;98.89;98592.19;5038879;28;20876;-75
2024/02/19 01:18:26;;;;;;;2.80;2.60;;;8.80;94.70;;;8.21;97.75;98589.88;5048554;28;20460;-75
2024/02/19 01:20:54;;;;;;;2.77;2.57;;;8.90;94.50;;;8.18;99.21;98595.63;5047794;28;20862;-78
2024/02/19 01:23:23;;;;;;;3.60;3.23;;;8.80;94.40;;;8.07;99.48;98596.06;5046525;28;20463;-78
2024/02/19 01:25:52;;;;;;;3.70;3.40;;;8.80;94.80;;;8.11;99.93;98594.69;5047556;28;20519;-73
2024/02/19 01:28:19;;;;;;;3.53;3.23;;;8.80;95.30;;;8.14;99.58;98590.78;5054623;28;20443;-76
2024/02/19 01:30:47;;;;;;;3.80;3.50;;;8.80;95.50;;;8.13;100.00;98608.81;5044791;28;20543;-78
2024/02/19 01:33:14;;;;;;;3.87;3.30;;;8.80;95.70;;;8.20;100.00;98606.22;5047797;28;20558;-78
2024/02/19 01:35:44;;;;;;;4.23;3.83;;;8.80;96.30;;;8.07;100.00;98593.38;5050227;28;20442;-78
2024/02/19 01:38:12;;;;;;;3.40;2.90;;;8.70;96.50;;;8.16;100.00;98591.44;5052057;28;20459;-77
2024/02/19 01:40:40;;;;;;;3.23;3.00;;;8.70;96.50;;;8.25;99.67;98606.47;5054198;28;20495;-69
2024/02/19 01:43:09;;;;;;;4.30;3.20;;;8.80;96.20;;;8.29;98.57;98594.31;5037474;28;20453;-80
2024/02/19 01:45:38;;;;;;;3.10;2.90;;;8.80;95.50;;;8.35;97.85;98590.03;5053316;28;20433;-76
2024/02/19 01:48:07;;;;;;;3.73;3.43;;;8.90;94.60;;;8.25;98.91;98594.88;5048499;28;20789;-75
2024/02/19 01:50:37;;;;;;;5.17;3.33;;;8.90;94.70;;;8.23;99.77;98600.47;5054038;28;20513;-75
2024/02/19 01:53:07;;;;;;;3.23;3.00;;;8.90;95.20;;;8.23;99.68;98605.84;5050801;28;20535;-77
2024/02/19 01:55:37;;;;;;;3.47;2.90;;;8.80;94.90;;;8.01;100.00;98586.06;5044848;28;20483;-73
2024/02/19 01:58:06;;;;;;;3.33;3.13;;;8.80;96.20;;;8.02;100.00;98593.13;5042503;28;20468;-78
2024/02/19 02:00:34;;;;;;;4.00;3.70;;;8.70;97.20;;;7.89;100.00;98594.59;5053039;28;20562;-77
2024/02/19 02:03:02;;;;;;;4.20;3.80;;;8.70;98.10;;;7.92;100.00;98609.53;5053304;28;20522;-74
2024/02/19 02:05:29;;;;;;;4.57;4.00;;;8.60;98.90;;;7.94;100.00;98594.84;5062248;28;20458;-75
2024/02/19 02:08:01;;;;;;;3.90;3.60;;;8.60;99.90;;;7.98;100.00;98599.91;5044356;28;21113;-77
2024/02/19 02:10:28;;;;;;;6.30;4.17;;;8.60;99.90;;;7.91;100.00;98599.78;5039108;28;20456;-75
2024/02/19 02:12:56;;;;;;;4.83;4.13;;;8.60;99.90;;;7.91;100.00;98597.09;5057352;28;20458;-75
2024/02/19 02:15:25;;;;;;;4.50;4.10;;;8.50;99.90;;;7.94;100.00;98594.84;5043218;28;20492;-74
2024/02/19 02:17:52;;;;;;;4.53;4.13;;;8.50;99.90;;;7.96;100.00;98596.53;5051167;28;21132;-76
2024/02/19 02:20:19;;;;;;;4.70;4.20;;;8.60;99.90;;;7.88;100.00;98589.38;5039897;28;20557;-78
2024/02/19 02:22:47;;;;;;;4.80;4.40;;;8.50;99.90;;;7.87;100.00;98604.69;5064478;28;20451;-77
2024/02/19 02:25:14;;;;;;;5.07;4.67;;;8.50;99.90;;;7.90;100.00;98601.63;5048094;28;20448;-76
2024/02/19 02:27:43;;;;;;;4.57;4.07;;;8.50;99.90;;;7.96;100.00;98599.22;5039492;28;20459;-76
2024/02/19 02:30:11;;;;;;;5.10;4.60;;;8.50;99.90;;;7.73;100.00;98592.06;5048019;28;20465;-80
2024/02/19 02:32:39;;;;;;;4.40;4.00;;;8.50;99.90;;;7.44;100.00;98542.59;5045212;28;20555;-78
2024/02/19 02:35:07;;;;;;;4.73;4.33;;;8.40;99.90;;;7.77;100.00;98596.06;5055617;28;20848;-78
2024/02/19 02:37:34;;;;;;;3.73;3.43;;;8.40;99.90;;;7.82;100.00;98592.81;5036508;28;20448;-77
2024/02/19 02:40:01;;;;;;;4.67;3.80;;;8.50;99.90;;;7.86;100.00;98584.19;5040162;28;20478;-76
2024/02/19 02:42:29;;;;;;;3.97;3.60;;;8.50;99.90;;;7.85;100.00;98587.91;5047874;28;20816;-80
2024/02/19 02:44:57;;;;;;;3.73;3.40;;;8.50;99.90;;;7.91;100.00;98583.66;5043490;28;20458;-77
2024/02/19 02:47:24;;;;;;;4.20;3.90;;;8.50;99.90;;;7.92;100.00;98575.38;5058522;28;20837;-75
2024/02/19 02:49:52;;;;;;;3.70;3.40;;;8.50;99.90;;;7.91;100.00;98576.41;5047277;28;20469;-78
2024/02/19 02:52:19;;;;;;;3.40;3.10;;;8.50;99.90;;;7.98;100.00;98573.00;5041915;28;20455;-76
2024/02/19 02:54:46;;;;;;;3.70;3.27;;;8.60;99.90;;;7.88;100.00;98557.94;5051449;28;20460;-77
2024/02/19 02:57:13;;;;;;;3.63;3.33;;;8.60;99.80;;;7.92;100.00;98563.78;5057260;28;20454;-78
2024/02/19 02:59:40;;;;;;;3.73;3.40;;;8.60;99.40;;;7.98;100.00;98564.91;5047746;28;20458;-74
2024/02/19 03:02:09;;;;;;;3.47;3.17;;;8.60;99.20;;;7.94;100.00;98562.56;5047006;28;20475;-79
2024/02/19 03:04:36;;;;;;;5.03;3.20;;;8.60;98.60;;;8.08;100.00;98563.59;5047136;28;20460;-78
2024/02/19 03:07:04;;;;;;;3.40;2.40;;;8.60;99.30;;;8.04;100.00;98562.31;5043197;28;20455;-77
2024/02/19 03:09:33;;;;;;;3.00;2.80;;;8.70;99.00;;;8.05;100.00;98565.84;5044953;28;20515;-78
2024/02/19 03:12:01;;;;;;;2.57;2.40;;;8.60;98.20;;;7.97;100.00;98566.75;5049134;28;20474;-77
2024/02/19 03:14:28;;;;;;;2.77;2.57;;;8.70;97.60;;;7.96;100.00;98564.25;5049173;28;20446;-77
2024/02/19 03:16:55;;;;;;;3.90;3.60;;;8.60;98.20;;;8.01;100.00;98561.84;5045872;28;20872;-77
2024/02/19 03:19:24;;;;;;;3.40;3.10;;;8.60;98.30;;;7.95;100.00;98560.72;5047749;28;20467;-73
2024/02/19 03:21:51;;;;;;;2.50;2.30;;;8.60;98.10;;;7.91;100.00;98560.25;5065604;28;20471;-78
2024/02/19 03:24:19;;;;;;;2.40;2.20;;;8.60;97.60;;;7.98;100.00;98570.28;5047617;28;20543;-76
2024/02/19 03:26:46;;;;;;;2.57;2.37;;;8.60;97.90;;;7.90;100.00;98561.28;5058511;28;20456;-75
2024/02/19 03:29:14;;;;;;;2.63;2.43;;;8.50;97.50;;;7.91;100.00;98562.94;5050526;28;20451;-75
2024/02/19 03:31:42;;;;;;;5.07;2.60;;;8.60;97.10;;;7.88;100.00;98568.72;5047764;28;22179;-76
2024/02/19 03:34:09;;;;;;;3.00;2.70;;;8.60;97.20;;;7.90;100.00;98576.59;5054416;28;20486;-73
2024/02/19 03:36:38;;;;;;;2.63;2.43;;;8.60;97.00;;;7.92;100.00;98570.00;5052142;28;20468;-77
2024/02/19 03:39:05;;;;;;;4.67;2.40;;;8.60;96.60;;;7.80;100.00;98556.19;5051218;28;20462;-76
2024/02/19 03:41:33;;;;;;;2.80;2.60;;;8.50;95.90;;;7.86;100.00;98553.75;5047495;28;20467;-73
2024/02/19 03:44:00;;;;;;;2.57;2.37;;;8.60;96.60;;;7.72;100.00;98542.78;5047640;28;20456;-76
2024/02/19 03:46:27;;;;;;;2.80;2.33;;;8.50;95.70;;;7.84;100.00;98570.09;5051624;28;20508;-78
2024/02/19 03:48:55;;;;;;;2.20;2.10;;;8.50;96.10;;;7.80;100.00;98560.72;5046134;28;20448;-76
2024/02/19 03:51:22;;;;;;;4.30;2.47;;;8.50;95.90;;;7.74;100.00;98562.31;5058613;28;20462;-75
2024/02/19 03:53:50;;;;;;;3.60;2.40;;;8.50;96.20;;;7.75;100.00;98563.97;5051407;28;20952;-76
2024/02/19 03:56:18;;;;;;;3.20;2.43;;;8.50;96.60;;;7.72;100.00;98563.50;5051272;28;20455;-75
2024/02/19 03:58:45;;;;;;;2.47;2.03;;;8.40;96.70;;;6.68;100.00;98390.28;5047166;28;20464;-76
2024/02/19 04:01:12;;;;;;;3.90;2.70;;;8.40;97.80;;;7.67;100.00;98574.78;5048667;28;20479;-78
2024/02/19 04:03:40;;;;;;;3.23;2.10;;;8.40;96.70;;;7.71;100.00;98572.59;5046528;28;20450;-74
2024/02/19 04:06:07;;;;;;;2.87;2.17;;;8.40;97.60;;;7.64;100.00;98573.31;5043548;28;20454;-80
2024/02/19 04:08:34;;;;;;;2.77;2.40;;;8.40;97.80;;;7.71;100.00;98570.72;5048502;28;20453;-80
2024/02/19 04:11:03;;;;;;;3.10;2.03;;;8.40;98.10;;;7.59;100.00;98574.91;5063467;28;20457;-78
2024/02/19 04:13:31;;;;;;;3.13;2.27;;;8.40;98.30;;;7.61;100.00;98576.38;5049234;28;20458;-79
2024/02/19 04:15:58;;;;;;;3.93;2.37;;;8.30;97.90;;;7.68;100.00;98570.28;5054031;28;20455;-72
2024/02/19 04:18:25;;;;;;;3.47;2.57;;;8.40;98.20;;;7.67;100.00;98576.66;5043965;28;20446;-76
2024/02/19 04:20:52;;;;;;;5.70;2.60;;;8.40;97.90;;;7.63;100.00;98577.00;5045939;28;20571;-77
2024/02/19 04:23:20;;;;;;;3.47;2.73;;;8.30;97.90;;;7.60;100.00;98581.94;5053384;28;20866;-77
2024/02/19 04:25:48;;;;;;;3.70;2.80;;;8.30;98.10;;;7.73;100.00;98586.69;5048061;28;20504;-78
2024/02/19 04:28:17;;;;;;;4.10;2.30;;;8.30;98.60;;;7.67;100.00;98582.88;5046873;28;20999;-76
2024/02/19 04:30:45;;;;;;;3.60;3.00;;;8.40;99.10;;;7.71;100.00;98586.03;5049546;28;20446;-79
2024/02/19 04:33:13;;;;;;;2.63;2.30;;;8.40;99.60;;;7.62;100.00;98577.22;5052536;28;20456;-79
2024/02/19 04:35:40;;;;;;;2.60;2.40;;;8.30;99.10;;;7.44;100.00;98545.28;5052669;28;20928;-78
2024/02/19 04:38:07;;;;;;;3.57;2.90;;;8.30;99.90;;;7.71;100.00;98594.91;5046653;28;20929;-78
2024/02/19 04:40:34;;;;;;;1.93;1.80;;;8.40;99.60;;;7.62;100.00;98577.22;5044299;28;20460;-78
2024/02/19 04:43:01;;;;;;;2.50;2.30;;;8.40;98.90;;;7.66;100.00;98591.97;5047853;28;20943;-73
2024/02/19 04:45:32;;;;;;;2.50;2.30;;;8.30;99.10;;;7.59;100.00;98597.22;5047799;28;20953;-74
2024/02/19 04:47:59;;;;;;;3.40;2.57;;;8.30;98.80;;;7.62;100.00;98599.53;5041366;28;20464;-72
2024/02/19 04:50:26;;;;;;;2.80;2.60;;;8.40;98.90;;;7.61;100.00;98597.88;5047162;28;20851;-75
2024/02/19 04:52:54;;;;;;;7.30;3.30;;;8.30;99.40;;;7.51;100.00;98576.63;5047643;28;20451;-75
2024/02/19 04:55:21;;;;;;;2.50;2.30;;;8.40;99.20;;;7.64;100.00;98594.81;5062716;28;20462;-75
2024/02/19 04:57:48;;;;;;;3.83;2.60;;;8.40;99.10;;;7.63;100.00;98611.97;5066690;28;20689;-77
2024/02/19 05:00:16;;;;;;;3.13;2.60;;;8.40;98.80;;;7.62;100.00;98601.41;5049441;28;20454;-75
2024/02/19 05:02:45;;;;;;;6.07;2.70;;;8.30;99.10;;;7.65;100.00;98607.25;5045647;28;20475;-74
2024/02/19 05:05:12;;;;;;;4.10;2.90;;;8.30;99.10;;;7.68;100.00;98602.53;5047372;28;20454;-77
2024/02/19 05:07:39;;;;;;;4.37;3.60;;;8.40;99.70;;;7.60;100.00;98612.34;5047393;28;20505;-75
2024/02/19 05:10:07;;;;;;;4.13;3.43;;;8.30;99.80;;;7.62;100.00;98607.63;5051885;28;20446;-79
2024/02/19 05:12:34;;;;;;;3.53;3.20;;;8.30;99.90;;;7.54;100.00;98604.16;5056728;28;20777;-78
2024/02/19 05:15:02;;;;;;;4.43;2.30;;;8.30;99.90;;;7.47;100.00;98610.28;5053775;28;20516;-77
2024/02/19 05:17:29;;;;;;;6.40;3.90;;;8.30;99.90;;;7.47;100.00;98622.88;5041098;28;20447;-80
2024/02/19 05:19:58;;;;;;;7.80;3.63;;;8.20;99.90;;;7.49;100.00;98610.94;5051794;28;20492;-77
2024/02/19 05:22:25;;;;;;;3.50;3.20;;;8.30;99.90;;;7.57;100.00;98614.53;5047895;28;20478;-78
2024/02/19 05:24:52;;;;;;;5.10;3.50;;;8.30;99.90;;;7.59;100.00;98613.38;5045781;28;20451;-79
2024/02/19 05:27:19;;;;;;;4.37;3.33;;;8.30;99.90;;;7.60;100.00;98619.59;5044795;28;20528;-76
2024/02/19 05:29:47;;;;;;;5.27;3.50;;;8.30;99.90;;;7.60;100.00;98622.28;5077230;28;20459;-77
2024/02/19 05:32:14;;;;;;;3.67;3.30;;;8.30;99.90;;;7.59;100.00;98615.22;5036484;28;20471;-75
2024/02/19 05:34:42;;;;;;;4.70;4.20;;;8.30;99.90;;;7.54;100.00;98593.41;5046727;28;20462;-70
2024/02/19 05:37:10;;;;;;;3.60;3.23;;;8.30;99.90;;;7.55;100.00;98622.81;5046232;28;20454;-73
2024/02/19 05:39:39;;;;;;;4.00;3.57;;;8.30;99.90;;;7.57;100.00;98617.25;5042954;28;20462;-75
2024/02/19 05:42:08;;;;;;;5.00;4.03;;;8.30;99.90;;;7.56;100.00;98626.31;5046417;28;20545;-83
2024/02/19 05:44:35;;;;;;;4.30;3.50;;;8.30;99.90;;;7.57;100.00;98626.16;5046370;28;20435;-84
2024/02/19 05:47:03;;;;;;;4.73;3.60;;;8.30;99.30;;;7.63;100.00;98629.97;5076959;28;20525;-81
2024/02/19 05:49:30;;;;;;;3.57;2.80;;;8.40;99.10;;;7.64;100.00;98637.84;5045553;28;23398;-79
2024/02/19 05:51:58;;;;;;;3.33;2.83;;;8.30;98.40;;;7.64;100.00;98635.16;5056733;28;20463;-78
2024/02/19 05:54:27;;;;;;;4.13;3.23;;;8.40;98.60;;;7.68;100.00;98638.31;5067745;28;20520;-75
2024/02/19 05:56:54;;;;;;;3.20;2.83;;;8.40;98.40;;;7.70;100.00;98635.47;5083540;28;20453;-73
2024/02/19 05:59:21;;;;;;;4.00;3.60;;;8.40;97.90;;;7.68;100.00;98632.94;5066594;28;20459;-74
2024/02/19 06:01:50;;;;;;;4.70;3.10;;;8.40;97.30;;;7.65;100.00;98636.81;5072652;28;20466;-75
2024/02/19 06:04:17;;;;;;;3.60;2.93;;;8.40;97.50;;;7.73;100.00;98648.56;5068601;28;20453;-80
2024/02/19 06:06:46;;;;;;;3.20;2.90;;;8.40;97.30;;;7.63;100.00;98646.94;5058547;28;20512;-80
2024/02/19 06:09:14;;;;;;;2.80;2.60;;;8.40;96.40;;;7.67;100.00;98646.59;5061331;28;20443;-81
2024/02/19 06:11:46;;;;;;;4.23;2.40;;;8.40;96.10;;;7.68;100.00;98656.34;5094841;28;20459;-80
2024/02/19 06:14:14;;;;;;;2.80;2.60;;;8.40;95.90;;;7.70;100.00;98659.69;5063834;28;20459;-73
2024/02/19 06:16:41;;;;;;;3.10;2.40;;;8.40;95.30;;;7.70;100.00;98662.38;5042031;28;20454;-77
2024/02/19 06:19:08;;;;;;;3.23;2.53;;;8.50;95.30;;;7.69;99.90;98655.31;5038925;28;20458;-74
2024/02/19 06:21:36;;;;;;;2.63;2.43;;;8.50;94.90;;;7.75;100.00;98666.19;5040829;28;20475;-74
2024/02/19 06:24:04;;;;;;;2.57;2.37;;;8.50;94.70;;;7.81;99.41;98683.47;5041597;28;20967;-74
2024/02/19 06:26:31;;;;;;;2.50;2.30;;;8.50;94.50;;;7.78;98.83;98676.59;5045315;28;20447;-74
2024/02/19 06:28:59;;;;;;;2.87;2.10;;;8.50;94.00;;;7.82;98.62;98682.44;5043707;28;20461;-70
2024/02/19 06:31:27;;;;;;;2.53;2.30;;;8.50;93.90;;;7.83;98.36;98685.97;5044307;28;20452;-77
2024/02/19 06:33:55;;;;;;;4.60;3.40;;;8.50;93.80;;;7.90;99.20;98679.66;5044054;28;20448;-78
2024/02/19 06:36:22;;;;;;;3.20;2.47;;;8.60;94.70;;;7.89;98.15;98699.53;5045505;28;20942;-76
2024/02/19 06:38:50;;;;;;;5.73;2.50;;;8.60;94.00;;;7.94;98.33;98699.81;5043357;28;20459;-76
2024/02/19 06:41:18;;;;;;;3.17;2.70;;;8.60;93.70;;;7.94;97.42;98702.50;5042304;28;21410;-76
2024/02/19 06:43:45;;;;;;;4.93;3.20;;;8.70;93.50;;;7.96;96.88;98699.63;5042240;28;20460;-70
2024/02/19 06:46:15;;;;;;;4.33;2.83;;;8.70;93.10;;;7.94;96.61;98698.97;5045461;28;20438;-70
2024/02/19 06:48:42;;;;;;;4.10;2.60;;;8.70;92.80;;;8.11;96.75;98707.72;5044136;28;20930;-69
2024/02/19 06:51:10;;;;;;;3.70;2.27;;;8.70;93.30;;;8.12;96.25;98698.66;5050126;28;20891;-72
2024/02/19 06:53:37;;;;;;;2.67;2.47;;;8.80;92.90;;;8.13;96.13;98707.56;5049194;28;20458;-69
2024/02/19 06:56:07;;;;;;;2.90;2.20;;;8.80;92.80;;;8.06;95.88;98711.00;5052325;28;20908;-69
2024/02/19 06:58:35;;;;;;;2.63;2.43;;;8.80;92.50;;;8.07;96.46;98709.13;5046484;28;20484;-69
2024/02/19 07:01:04;;;;;;;3.97;2.90;;;8.80;92.70;;;8.21;96.02;98719.06;5042454;28;20461;-69
2024/02/19 07:03:32;;;;;;;4.80;3.00;;;8.80;93.00;;;8.18;96.01;98702.44;5047064;28;20496;-69
2024/02/19 07:05:59;;;;;;;2.43;2.23;;;8.90;93.00;;;8.23;94.82;98733.19;5047766;28;20458;-69
2024/02/19 07:08:26;;;;;;;2.43;2.13;;;8.90;92.30;;;8.11;94.95;98715.78;5042887;28;20519;-68
2024/02/19 07:10:54;;;;;;;4.67;3.00;;;8.90;92.10;;;8.11;95.23;98729.25;5045320;28;20457;-69
2024/02/19 07:13:21;;;;;;;3.00;2.57;;;8.80;92.20;;;8.11;94.58;98723.88;5042512;28;20695;-69
2024/02/19 07:15:48;;;;;;;4.10;3.20;;;8.90;92.20;;;8.17;94.42;98733.94;5050688;28;20463;-69
2024/02/19 07:18:15;;;;;;;2.70;2.33;;;8.90;92.00;;;7.97;93.46;98697.78;5045166;28;21045;-70
2024/02/19 07:20:44;;;;;;;3.83;2.50;;;8.90;91.60;;;8.16;92.77;98726.03;5047456;28;20805;-73
2024/02/19 07:23:12;;;;;;;3.17;1.60;;;8.80;91.30;;;8.04;92.81;98729.19;5047920;28;20479;-72
2024/02/19 07:25:39;;;;;;;2.83;2.10;;;8.90;91.00;;;8.19;92.30;98729.19;5047202;28;20479;-71
2024/02/19 07:28:07;;;;;;;2.27;1.50;;;8.90;91.10;;;8.06;90.77;98742.44;5045231;28;20879;-71
2024/02/19 07:30:35;;;;;;;4.37;2.50;;;8.80;90.40;;;8.07;89.99;98746.78;5045713;28;20460;-70
2024/02/19 07:33:03;;;;;;;2.50;1.70;;;8.80;90.40;;;8.08;90.31;98745.78;5050685;28;20940;-70
2024/02/19 07:35:30;;;;;;;1.40;1.30;;;8.80;90.30;;;8.06;89.56;98745.97;5046871;28;20528;-72
2024/02/19 07:37:59;;;;;;;3.33;1.83;;;8.80;90.30;;;8.07;90.35;98749.47;5050257;28;20472;-72
2024/02/19 07:40:27;;;;;;;2.87;1.70;;;8.70;90.30;;;8.13;89.20;98751.47;5049728;28;20451;-71
2024/02/19 07:42:54;;;;;;;2.97;2.00;;;8.80;90.10;;;8.12;88.75;98757.88;5042539;28;20486;-71
2024/02/19 07:45:21;;;;;;;3.27;1.70;;;8.80;90.00;;;8.10;89.06;98762.56;5044431;28;20444;-72
2024/02/19 07:47:48;;;;;;;2.50;1.60;;;8.80;89.80;;;8.14;87.82;98753.16;5044294;28;20991;-70
2024/02/19 07:50:16;;;;;;;1.87;1.57;;;8.80;89.40;;;8.24;87.91;98755.56;5037779;28;20463;-71
2024/02/19 07:52:44;;;;;;;1.73;1.20;;;8.80;89.30;;;8.23;86.50;98775.44;5041601;28;20467;-83
2024/02/19 07:55:13;;;;;;;2.90;1.60;;;8.90;88.60;;;8.26;85.72;98763.44;5045227;28;20935;-70
2024/02/19 07:57:40;;;;;;;1.37;1.27;;;8.90;88.50;;;8.30;86.16;98781.75;5036990;28;20531;-71
2024/02/19 08:00:10;;;;;;;2.30;1.27;;;8.90;88.10;;;8.22;86.07;98782.66;5060097;28;20454;-69
2024/02/19 08:02:37;;;;;;;2.20;1.47;;;8.90;88.00;;;8.16;85.49;98791.47;5039874;28;20478;-71
2024/02/19 08:05:05;;;;;;;1.70;1.37;;;8.90;87.50;;;8.21;86.01;98799.03;5050572;28;20444;-72
2024/02/19 08:07:32;;;;;;;2.53;1.50;;;8.90;87.60;;;8.36;85.29;98807.97;5049068;28;20458;-71
2024/02/19 08:09:59;;;;;;;2.83;1.30;;;9.00;87.90;;;8.39;85.87;98801.38;5046359;28;21023;-72
2024/02/19 08:12:28;;;;;;;1.40;1.30;;;9.10;87.80;;;8.28;85.41;98815.28;5044725;28;20467;-72
2024/02/19 08:14:55;;;;;;;1.93;1.47;;;9.00;87.70;;;8.45;85.43;98805.19;5042856;28;20458;-70
2024/02/19 08:17:22;;;;;;;2.50;1.57;;;9.10;88.10;;;8.52;85.99;98819.66;5045915;28;20466;-71
2024/02/19 08:19:50;;;;;;;3.20;1.50;;;9.10;88.20;;;8.55;86.22;98829.19;5044884;28;20465;-74
2024/02/19 08:22:17;;;;;;;1.60;1.30;;;9.10;87.90;;;8.29;85.41;98817.78;5046644;28;20548;-75
2024/02/19 08:24:44;;;;;;;2.90;1.77;;;9.00;87.20;;;8.25;85.69;98821.84;5048946;28;20447;-75
2024/02/19 08:27:12;;;;;;;1.40;1.20;;;9.00;87.50;;;8.22;85.51;98827.59;5042923;28;20840;-76
2024/02/19 08:29:40;;;;;;;3.60;1.83;;;8.90;87.30;;;8.13;86.21;98823.28;5044887;28;20458;-77
2024/02/19 08:32:08;;;;;;;3.50;2.00;;;8.90;87.30;;;8.31;85.86;98841.84;5074685;28;20979;-79
2024/02/19 08:34:35;;;;;;;1.70;1.60;;;8.90;87.50;;;8.44;85.45;98836.69;5046262;28;20863;-79
2024/02/19 08:37:02;;;;;;;2.03;1.80;;;9.00;87.40;;;8.55;84.56;98848.06;5044630;28;20497;-78
2024/02/19 08:39:29;;;;;;;2.13;1.70;;;9.10;87.60;;;8.37;83.90;98843.81;5038259;28;20809;-78
2024/02/19 08:41:58;;;;;;;3.00;1.70;;;9.10;86.60;;;8.44;83.79;98830.44;5041997;28;20460;-77
2024/02/19 08:44:26;;;;;;;5.33;2.00;;;9.10;86.70;;;8.60;83.51;98842.97;5041930;28;20463;-75
2024/02/19 08:46:54;;;;;;;2.40;1.77;;;9.20;86.50;;;8.52;82.97;98837.66;5049236;28;20944;-80
2024/02/19 08:49:23;;;;;;;5.00;1.97;;;9.20;86.10;;;8.49;82.56;98853.13;5045723;28;20461;-77
2024/02/19 08:51:50;;;;;;;2.83;1.90;;;9.20;86.10;;;8.48;82.94;98854.16;5047497;28;20487;-76
2024/02/19 08:54:17;;;;;;;5.30;1.93;;;9.20;85.80;;;8.31;82.14;98855.31;5043426;28;20453;-70
2024/02/19 08:56:45;;;;;;;3.63;2.00;;;9.00;85.40;;;8.19;82.44;98850.34;5046024;28;20449;-68
2024/02/19 08:59:12;;;;;;;5.90;1.70;;;8.90;85.30;;;8.18;81.56;98869.34;5044276;28;20462;-69
2024/02/19 09:01:39;;;;;;;3.40;1.80;;;8.90;85.00;;;8.38;81.91;98868.88;5045676;28;20455;-73
2024/02/19 09:04:08;;;;;;;4.30;2.07;;;9.00;85.30;;;8.47;79.68;98878.56;5063146;28;20469;-73
2024/02/19 09:06:35;;;;;;;5.30;2.37;;;9.10;84.50;;;8.56;78.80;98882.06;5047849;28;20535;-73
2024/02/19 09:09:03;;;;;;;3.53;2.00;;;9.20;84.10;;;8.51;78.12;98885.31;5053937;28;20847;-73
2024/02/19 09:11:30;;;;;;;2.70;2.50;;;9.20;83.40;;;8.48;77.40;98881.09;5045505;28;20946;-73
2024/02/19 09:13:58;;;;;;;5.87;2.20;;;9.10;82.80;;;7.92;77.44;98825.63;5047916;28;20462;-82
2024/02/19 09:16:25;;;;;;;2.50;1.87;;;9.10;82.90;;;8.21;77.59;98879.78;5045308;28;20442;-76
2024/02/19 09:18:52;;;;;;;3.53;1.60;;;9.00;82.80;;;8.12;78.27;98881.69;5060374;28;20451;-70
2024/02/19 09:21:21;;;;;;;4.10;2.07;;;8.90;82.70;;;8.31;79.49;98887.63;5046305;28;20452;-81
2024/02/19 09:23:48;;;;;;;3.50;1.63;;;8.90;83.40;;;8.14;78.99;98882.34;5046783;28;20530;-73
2024/02/19 09:26:16;;;;;;;5.03;1.93;;;8.80;83.20;;;8.17;79.53;98887.38;5047416;28;20454;-72
2024/02/19 09:28:43;;;;;;;2.73;2.20;;;8.80;83.50;;;8.29;80.09;98892.34;5055554;28;20979;-69
2024/02/19 09:31:11;;;;;;;1.77;1.67;;;8.90;83.80;;;8.26;78.21;98896.22;5044055;28;20465;-68
2024/02/19 09:33:38;;;;;;;2.83;1.70;;;9.00;83.00;;;7.67;76.90;98824.13;5047794;28;20460;-69
2024/02/19 09:36:07;;;;;;;2.23;1.30;;;8.80;82.20;;;7.67;77.28;98846.47;5046014;28;20453;-70
2024/02/19 09:38:35;;;;;;;3.40;1.63;;;8.70;81.90;;;8.08;76.93;98908.13;5045363;28;20454;-70
2024/02/19 09:41:04;;;;;;;3.67;1.83;;;8.80;82.10;;;8.07;75.83;98910.97;5046895;28;20471;-70
2024/02/19 09:43:31;;;;;;;3.43;1.40;;;8.70;81.60;;;8.20;75.44;98900.47;5041533;28;20495;-69
2024/02/19 09:45:59;;;;;;;2.37;1.10;;;8.80;81.20;;;8.18;73.67;98913.28;5077237;28;20910;-69
2024/02/19 09:48:28;;;;;;;3.47;1.40;;;8.90;80.20;;;8.15;73.27;98908.25;5045854;28;20446;-70
2024/02/19 09:50:57;;;;;;;2.47;1.50;;;8.90;80.00;;;8.31;73.53;98912.66;5045379;28;20475;-70
2024/02/19 09:53:32;;;;;;;3.17;1.40;;;8.90;80.40;;;8.26;74.23;98919.59;5047917;28;20443;-70
2024/02/19 09:56:01;;;;;;;5.60;1.83;;;8.90;80.30;;;8.26;74.07;98915.06;5048763;28;20477;-70
2024/02/19 09:58:29;;;;;;;2.33;1.50;;;9.00;80.30;;;8.21;73.94;98912.91;5045659;28;20823;-70
2024/02/19 10:00:57;;;;;;;4.17;2.13;;;8.90;80.40;;;8.13;75.28;98915.66;5045432;28;20480;-70
2024/02/19 10:03:24;;;;;;;4.80;2.43;;;8.80;80.50;;;8.08;75.34;98923.41;5049868;28;20466;-70
2024/02/19 10:05:51;;;;;;;6.07;2.30;;;8.80;80.80;;;8.12;74.88;98935.53;5044400;28;20489;-71
2024/02/19 10:08:20;;;;;;;5.17;2.50;;;8.80;80.80;;;8.07;74.65;98933.34;5044281;28;20512;-70
2024/02/19 10:10:55;;;;;;;5.10;1.87;;;8.80;80.10;;;8.10;73.63;98944.78;5046679;28;20782;-70
2024/02/19 10:13:24;;;;;;;1.73;1.23;;;8.80;79.70;;;8.00;73.00;98951.22;5045599;28;20449;-69
2024/02/19 10:15:51;;;;;;;3.60;2.20;;;8.80;79.10;;;8.04;72.73;98949.00;5044175;28;20483;-70
2024/02/19 10:18:20;;;;;;;4.10;1.90;;;8.70;78.80;;;8.15;72.22;98939.69;5041608;28;20796;-70
2024/02/19 10:20:50;;;;;;;2.93;1.40;;;8.80;78.80;;;7.82;70.94;98903.06;5044418;28;20459;-69
2024/02/19 10:23:19;;;;;;;5.80;2.40;;;8.90;78.20;;;8.14;70.83;98960.41;5043933;28;20486;-71
2024/02/19 10:25:47;;;;;;;3.80;1.87;;;8.90;78.20;;;8.36;70.52;98952.53;5043312;28;20471;-70
2024/02/19 10:28:14;;;;;;;1.50;1.37;;;9.00;78.30;;;8.32;70.83;98948.53;5046674;28;20454;-68
2024/02/19 10:30:43;;;;;;;2.73;1.57;;;9.00;77.80;;;8.48;70.29;98947.56;5044462;28;20463;-70
2024/02/19 10:33:10;;;;;;;3.47;1.80;;;9.10;78.00;;;8.54;70.46;98949.59;5043771;28;20443;-70